Terminal Aerodrome Forecast
Issued by NWS

Home | Current Version | Previous Version | Text Only | Print | Product List | Glossary On
Versions: 1 2 3 4 5 6 7 8 9 10 11 12 13
000
FTUS42 KFFC 300527
TAFFTY
TAF
KFTY 300527Z 3006/3106 07004KT P6SM FEW100
     FM301400 08006KT P6SM FEW030
     FM301700 07010G17KT P6SM SCT045
     FM310000 08006KT P6SM SCT120=

USA.gov is the U.S. government's official web portal to all federal, state and local government web resources and services.